sensor_id;sensor_type;location;lat;lon;timestamp;P1;durP1;ratioP1;P2;durP2;ratioP2
46266;SDS011;31998;48.798;15.066;2022-07-23T00:02:23;11.97;;;10.97;;
46266;SDS011;31998;48.798;15.066;2022-07-23T00:04:49;11.50;;;10.60;;
46266;SDS011;31998;48.798;15.066;2022-07-23T00:07:14;11.97;;;9.67;;
46266;SDS011;31998;48.798;15.066;2022-07-23T00:09:39;12.33;;;9.70;;
46266;SDS011;31998;48.798;15.066;2022-07-23T00:12:05;12.63;;;11.37;;
46266;SDS011;31998;48.798;15.066;2022-07-23T00:14:30;13.13;;;11.73;;
46266;SDS011;31998;48.798;15.066;2022-07-23T00:16:56;12.03;;;10.93;;
46266;SDS011;31998;48.798;15.066;2022-07-23T00:19:21;12.17;;;11.17;;
46266;SDS011;31998;48.798;15.066;2022-07-23T00:21:47;13.80;;;10.37;;
46266;SDS011;31998;48.798;15.066;2022-07-23T00:24:12;10.73;;;9.73;;
46266;SDS011;31998;48.798;15.066;2022-07-23T00:26:37;13.23;;;10.17;;
46266;SDS011;31998;48.798;15.066;2022-07-23T00:29:03;10.17;;;9.37;;
46266;SDS011;31998;48.798;15.066;2022-07-23T00:31:28;12.10;;;10.93;;
46266;SDS011;31998;48.798;15.066;2022-07-23T00:33:54;11.23;;;10.33;;
46266;SDS011;31998;48.798;15.066;2022-07-23T00:36:22;12.80;;;11.60;;
46266;SDS011;31998;48.798;15.066;2022-07-23T00:38:48;11.80;;;9.97;;
46266;SDS011;31998;48.798;15.066;2022-07-23T00:41:14;10.57;;;9.77;;
46266;SDS011;31998;48.798;15.066;2022-07-23T00:43:40;11.87;;;10.87;;
46266;SDS011;31998;48.798;15.066;2022-07-23T00:46:05;12.40;;;11.00;;
46266;SDS011;31998;48.798;15.066;2022-07-23T00:48:31;14.83;;;11.27;;
46266;SDS011;31998;48.798;15.066;2022-07-23T00:50:56;11.87;;;10.83;;
46266;SDS011;31998;48.798;15.066;2022-07-23T00:53:22;10.97;;;9.47;;
46266;SDS011;31998;48.798;15.066;2022-07-23T00:55:48;13.53;;;10.97;;
46266;SDS011;31998;48.798;15.066;2022-07-23T00:58:14;15.73;;;12.40;;
46266;SDS011;31998;48.798;15.066;2022-07-23T01:00:40;12.90;;;11.83;;
46266;SDS011;31998;48.798;15.066;2022-07-23T01:03:06;11.13;;;10.23;;
46266;SDS011;31998;48.798;15.066;2022-07-23T01:05:32;13.43;;;12.03;;
46266;SDS011;31998;48.798;15.066;2022-07-23T01:07:57;12.20;;;11.20;;
46266;SDS011;31998;48.798;15.066;2022-07-23T01:10:24;12.33;;;11.23;;
46266;SDS011;31998;48.798;15.066;2022-07-23T01:12:56;12.57;;;11.33;;
46266;SDS011;31998;48.798;15.066;2022-07-23T01:15:22;11.43;;;10.63;;
46266;SDS011;31998;48.798;15.066;2022-07-23T01:17:47;12.90;;;11.70;;
46266;SDS011;31998;48.798;15.066;2022-07-23T01:20:13;11.83;;;10.63;;
46266;SDS011;31998;48.798;15.066;2022-07-23T01:22:38;13.33;;;11.93;;
46266;SDS011;31998;48.798;15.066;2022-07-23T01:25:04;13.47;;;12.43;;
46266;SDS011;31998;48.798;15.066;2022-07-23T01:27:30;12.43;;;11.30;;
46266;SDS011;31998;48.798;15.066;2022-07-23T01:29:56;15.63;;;11.00;;
46266;SDS011;31998;48.798;15.066;2022-07-23T01:32:22;14.07;;;12.83;;
46266;SDS011;31998;48.798;15.066;2022-07-23T01:34:47;11.10;;;10.30;;
46266;SDS011;31998;48.798;15.066;2022-07-23T01:37:13;12.47;;;11.33;;
46266;SDS011;31998;48.798;15.066;2022-07-23T01:39:38;10.63;;;9.90;;
46266;SDS011;31998;48.798;15.066;2022-07-23T01:42:04;11.37;;;10.57;;
46266;SDS011;31998;48.798;15.066;2022-07-23T01:44:30;16.23;;;11.20;;
46266;SDS011;31998;48.798;15.066;2022-07-23T01:46:55;11.70;;;10.67;;
46266;SDS011;31998;48.798;15.066;2022-07-23T01:49:21;15.37;;;9.80;;
46266;SDS011;31998;48.798;15.066;2022-07-23T01:51:47;13.10;;;12.10;;
46266;SDS011;31998;48.798;15.066;2022-07-23T01:54:25;14.63;;;11.47;;
46266;SDS011;31998;48.798;15.066;2022-07-23T01:56:55;13.60;;;11.00;;
46266;SDS011;31998;48.798;15.066;2022-07-23T01:59:21;12.70;;;11.40;;
46266;SDS011;31998;48.798;15.066;2022-07-23T02:01:47;12.80;;;11.70;;
46266;SDS011;31998;48.798;15.066;2022-07-23T02:04:15;12.80;;;10.60;;
46266;SDS011;31998;48.798;15.066;2022-07-23T02:06:44;11.50;;;10.70;;
46266;SDS011;31998;48.798;15.066;2022-07-23T02:09:10;12.43;;;11.53;;
46266;SDS011;31998;48.798;15.066;2022-07-23T02:11:35;10.27;;;9.40;;
46266;SDS011;31998;48.798;15.066;2022-07-23T02:14:01;12.60;;;11.50;;
46266;SDS011;31998;48.798;15.066;2022-07-23T02:16:26;10.97;;;9.97;;
46266;SDS011;31998;48.798;15.066;2022-07-23T02:18:52;16.00;;;10.07;;
46266;SDS011;31998;48.798;15.066;2022-07-23T02:21:17;9.40;;;8.80;;
46266;SDS011;31998;48.798;15.066;2022-07-23T02:23:42;12.10;;;10.87;;
46266;SDS011;31998;48.798;15.066;2022-07-23T02:26:08;14.50;;;12.23;;
46266;SDS011;31998;48.798;15.066;2022-07-23T02:28:33;15.73;;;11.40;;
46266;SDS011;31998;48.798;15.066;2022-07-23T02:30:59;14.30;;;12.47;;
46266;SDS011;31998;48.798;15.066;2022-07-23T02:33:24;12.97;;;11.70;;
46266;SDS011;31998;48.798;15.066;2022-07-23T02:35:50;15.60;;;13.40;;
46266;SDS011;31998;48.798;15.066;2022-07-23T02:38:15;13.73;;;12.30;;
46266;SDS011;31998;48.798;15.066;2022-07-23T02:40:41;14.30;;;13.00;;
46266;SDS011;31998;48.798;15.066;2022-07-23T02:43:06;14.40;;;12.90;;
46266;SDS011;31998;48.798;15.066;2022-07-23T02:45:32;13.57;;;12.57;;
46266;SDS011;31998;48.798;15.066;2022-07-23T02:47:57;14.63;;;13.07;;
46266;SDS011;31998;48.798;15.066;2022-07-23T02:50:23;12.70;;;11.70;;
46266;SDS011;31998;48.798;15.066;2022-07-23T02:52:48;14.37;;;12.77;;
46266;SDS011;31998;48.798;15.066;2022-07-23T02:55:14;30.37;;;13.07;;
46266;SDS011;31998;48.798;15.066;2022-07-23T02:57:39;16.00;;;12.87;;
46266;SDS011;31998;48.798;15.066;2022-07-23T03:00:05;14.40;;;12.90;;
46266;SDS011;31998;48.798;15.066;2022-07-23T03:02:31;16.70;;;11.70;;
46266;SDS011;31998;48.798;15.066;2022-07-23T03:04:57;14.97;;;12.83;;
46266;SDS011;31998;48.798;15.066;2022-07-23T03:07:22;14.77;;;13.47;;
46266;SDS011;31998;48.798;15.066;2022-07-23T03:09:48;13.10;;;11.90;;
46266;SDS011;31998;48.798;15.066;2022-07-23T03:12:13;18.37;;;13.60;;
46266;SDS011;31998;48.798;15.066;2022-07-23T03:14:39;15.20;;;12.70;;
46266;SDS011;31998;48.798;15.066;2022-07-23T03:17:05;21.37;;;12.67;;
46266;SDS011;31998;48.798;15.066;2022-07-23T03:19:30;14.43;;;13.17;;
46266;SDS011;31998;48.798;15.066;2022-07-23T03:21:56;12.40;;;11.20;;
46266;SDS011;31998;48.798;15.066;2022-07-23T03:24:21;13.23;;;12.00;;
46266;SDS011;31998;48.798;15.066;2022-07-23T03:26:48;15.43;;;13.60;;
46266;SDS011;31998;48.798;15.066;2022-07-23T03:29:14;15.37;;;14.00;;
46266;SDS011;31998;48.798;15.066;2022-07-23T03:31:40;12.10;;;11.00;;
46266;SDS011;31998;48.798;15.066;2022-07-23T03:34:05;12.83;;;11.60;;
46266;SDS011;31998;48.798;15.066;2022-07-23T03:36:30;13.47;;;12.30;;
46266;SDS011;31998;48.798;15.066;2022-07-23T03:38:56;13.00;;;11.90;;
46266;SDS011;31998;48.798;15.066;2022-07-23T03:41:21;11.93;;;10.80;;
46266;SDS011;31998;48.798;15.066;2022-07-23T03:43:47;13.33;;;12.03;;
46266;SDS011;31998;48.798;15.066;2022-07-23T03:46:13;14.93;;;13.53;;
46266;SDS011;31998;48.798;15.066;2022-07-23T03:48:39;16.87;;;14.27;;
46266;SDS011;31998;48.798;15.066;2022-07-23T03:51:04;13.20;;;12.10;;
46266;SDS011;31998;48.798;15.066;2022-07-23T03:53:30;13.37;;;12.37;;
46266;SDS011;31998;48.798;15.066;2022-07-23T03:55:56;13.77;;;12.67;;
46266;SDS011;31998;48.798;15.066;2022-07-23T03:58:21;13.73;;;12.63;;
46266;SDS011;31998;48.798;15.066;2022-07-23T04:00:47;17.10;;;13.27;;
46266;SDS011;31998;48.798;15.066;2022-07-23T04:03:12;13.67;;;12.33;;
46266;SDS011;31998;48.798;15.066;2022-07-23T04:05:37;16.77;;;14.70;;
46266;SDS011;31998;48.798;15.066;2022-07-23T04:08:03;13.43;;;12.13;;
46266;SDS011;31998;48.798;15.066;2022-07-23T04:10:28;14.97;;;13.47;;
46266;SDS011;31998;48.798;15.066;2022-07-23T04:12:54;14.20;;;12.80;;
46266;SDS011;31998;48.798;15.066;2022-07-23T04:15:19;14.87;;;13.30;;
46266;SDS011;31998;48.798;15.066;2022-07-23T04:17:45;15.43;;;13.30;;
46266;SDS011;31998;48.798;15.066;2022-07-23T04:20:11;14.80;;;13.33;;
46266;SDS011;31998;48.798;15.066;2022-07-23T04:22:37;14.13;;;12.80;;
46266;SDS011;31998;48.798;15.066;2022-07-23T04:25:03;14.57;;;13.27;;
46266;SDS011;31998;48.798;15.066;2022-07-23T04:27:29;13.10;;;11.97;;
46266;SDS011;31998;48.798;15.066;2022-07-23T04:29:54;14.40;;;13.07;;
46266;SDS011;31998;48.798;15.066;2022-07-23T04:32:20;13.77;;;12.37;;
46266;SDS011;31998;48.798;15.066;2022-07-23T04:34:45;14.43;;;12.87;;
46266;SDS011;31998;48.798;15.066;2022-07-23T04:37:10;13.37;;;12.27;;
46266;SDS011;31998;48.798;15.066;2022-07-23T04:39:36;14.47;;;13.17;;
46266;SDS011;31998;48.798;15.066;2022-07-23T04:42:02;17.57;;;12.83;;
46266;SDS011;31998;48.798;15.066;2022-07-23T04:44:27;14.07;;;12.87;;
46266;SDS011;31998;48.798;15.066;2022-07-23T04:46:52;15.27;;;13.87;;
46266;SDS011;31998;48.798;15.066;2022-07-23T04:49:18;15.17;;;13.80;;
46266;SDS011;31998;48.798;15.066;2022-07-23T04:51:43;15.50;;;14.10;;
46266;SDS011;31998;48.798;15.066;2022-07-23T04:54:09;18.30;;;16.60;;
46266;SDS011;31998;48.798;15.066;2022-07-23T04:56:34;16.63;;;14.97;;
46266;SDS011;31998;48.798;15.066;2022-07-23T04:58:59;18.63;;;15.10;;
46266;SDS011;31998;48.798;15.066;2022-07-23T05:01:25;14.50;;;13.20;;
46266;SDS011;31998;48.798;15.066;2022-07-23T05:03:50;15.30;;;14.10;;
46266;SDS011;31998;48.798;15.066;2022-07-23T05:06:16;15.57;;;14.37;;
46266;SDS011;31998;48.798;15.066;2022-07-23T05:08:41;14.57;;;13.37;;
46266;SDS011;31998;48.798;15.066;2022-07-23T05:11:07;15.73;;;14.40;;
46266;SDS011;31998;48.798;15.066;2022-07-23T05:13:32;15.10;;;14.00;;
46266;SDS011;31998;48.798;15.066;2022-07-23T05:15:57;16.13;;;14.50;;
46266;SDS011;31998;48.798;15.066;2022-07-23T05:18:23;14.53;;;13.43;;
46266;SDS011;31998;48.798;15.066;2022-07-23T05:20:48;15.17;;;13.63;;
46266;SDS011;31998;48.798;15.066;2022-07-23T05:23:14;14.77;;;13.37;;
46266;SDS011;31998;48.798;15.066;2022-07-23T05:25:39;16.13;;;14.70;;
46266;SDS011;31998;48.798;15.066;2022-07-23T05:28:05;14.40;;;13.20;;
46266;SDS011;31998;48.798;15.066;2022-07-23T05:30:30;13.47;;;12.50;;
46266;SDS011;31998;48.798;15.066;2022-07-23T05:32:56;13.77;;;12.67;;
46266;SDS011;31998;48.798;15.066;2022-07-23T05:35:21;13.57;;;12.47;;
46266;SDS011;31998;48.798;15.066;2022-07-23T05:37:46;12.17;;;11.37;;
46266;SDS011;31998;48.798;15.066;2022-07-23T05:40:12;12.07;;;11.17;;
46266;SDS011;31998;48.798;15.066;2022-07-23T05:42:38;14.23;;;10.30;;
46266;SDS011;31998;48.798;15.066;2022-07-23T05:45:05;11.80;;;10.90;;
46266;SDS011;31998;48.798;15.066;2022-07-23T05:47:44;10.90;;;10.20;;
46266;SDS011;31998;48.798;15.066;2022-07-23T05:50:15;12.73;;;10.00;;
46266;SDS011;31998;48.798;15.066;2022-07-23T05:52:41;12.73;;;11.47;;
46266;SDS011;31998;48.798;15.066;2022-07-23T05:55:08;18.20;;;16.27;;
46266;SDS011;31998;48.798;15.066;2022-07-23T05:57:34;12.60;;;11.40;;
46266;SDS011;31998;48.798;15.066;2022-07-23T06:00:00;10.60;;;9.60;;
46266;SDS011;31998;48.798;15.066;2022-07-23T06:02:26;9.83;;;9.13;;
46266;SDS011;31998;48.798;15.066;2022-07-23T06:04:52;9.80;;;9.00;;
46266;SDS011;31998;48.798;15.066;2022-07-23T06:07:17;10.20;;;9.50;;
46266;SDS011;31998;48.798;15.066;2022-07-23T06:09:42;9.67;;;8.90;;
46266;SDS011;31998;48.798;15.066;2022-07-23T06:12:08;9.70;;;9.00;;
46266;SDS011;31998;48.798;15.066;2022-07-23T06:14:33;8.23;;;7.40;;
46266;SDS011;31998;48.798;15.066;2022-07-23T06:16:59;8.50;;;7.37;;
46266;SDS011;31998;48.798;15.066;2022-07-23T06:19:25;10.07;;;7.43;;
46266;SDS011;31998;48.798;15.066;2022-07-23T06:21:50;8.60;;;6.77;;
46266;SDS011;31998;48.798;15.066;2022-07-23T06:24:16;10.90;;;7.10;;
46266;SDS011;31998;48.798;15.066;2022-07-23T06:26:41;6.93;;;6.23;;
46266;SDS011;31998;48.798;15.066;2022-07-23T06:29:07;7.20;;;6.80;;
46266;SDS011;31998;48.798;15.066;2022-07-23T06:31:32;7.93;;;7.30;;
46266;SDS011;31998;48.798;15.066;2022-07-23T06:33:58;7.40;;;6.90;;
46266;SDS011;31998;48.798;15.066;2022-07-23T06:36:24;6.47;;;6.17;;
46266;SDS011;31998;48.798;15.066;2022-07-23T06:38:49;7.13;;;6.20;;
46266;SDS011;31998;48.798;15.066;2022-07-23T06:41:15;6.90;;;6.50;;
46266;SDS011;31998;48.798;15.066;2022-07-23T06:43:40;7.07;;;6.63;;
46266;SDS011;31998;48.798;15.066;2022-07-23T06:46:05;7.70;;;7.03;;
46266;SDS011;31998;48.798;15.066;2022-07-23T06:48:31;8.33;;;6.87;;
46266;SDS011;31998;48.798;15.066;2022-07-23T06:50:56;7.37;;;6.87;;
46266;SDS011;31998;48.798;15.066;2022-07-23T06:53:22;7.43;;;6.90;;
46266;SDS011;31998;48.798;15.066;2022-07-23T06:55:47;7.80;;;7.20;;
46266;SDS011;31998;48.798;15.066;2022-07-23T06:58:12;7.23;;;6.73;;
46266;SDS011;31998;48.798;15.066;2022-07-23T07:00:39;8.17;;;7.27;;
46266;SDS011;31998;48.798;15.066;2022-07-23T07:03:04;6.90;;;6.50;;
46266;SDS011;31998;48.798;15.066;2022-07-23T07:05:30;7.33;;;6.93;;
46266;SDS011;31998;48.798;15.066;2022-07-23T07:07:55;7.67;;;6.90;;
46266;SDS011;31998;48.798;15.066;2022-07-23T07:10:21;7.37;;;6.67;;
46266;SDS011;31998;48.798;15.066;2022-07-23T07:12:46;7.80;;;7.27;;
46266;SDS011;31998;48.798;15.066;2022-07-23T07:15:12;7.17;;;6.67;;
46266;SDS011;31998;48.798;15.066;2022-07-23T07:17:37;8.60;;;7.90;;
46266;SDS011;31998;48.798;15.066;2022-07-23T07:20:04;7.20;;;6.80;;
46266;SDS011;31998;48.798;15.066;2022-07-23T07:22:30;8.27;;;7.77;;
46266;SDS011;31998;48.798;15.066;2022-07-23T07:24:56;7.83;;;7.33;;
46266;SDS011;31998;48.798;15.066;2022-07-23T07:27:22;7.53;;;6.97;;
46266;SDS011;31998;48.798;15.066;2022-07-23T07:29:47;7.90;;;7.30;;
46266;SDS011;31998;48.798;15.066;2022-07-23T07:32:13;7.90;;;7.30;;
46266;SDS011;31998;48.798;15.066;2022-07-23T07:34:38;9.37;;;7.30;;
46266;SDS011;31998;48.798;15.066;2022-07-23T07:37:07;7.97;;;7.47;;
46266;SDS011;31998;48.798;15.066;2022-07-23T07:39:32;8.63;;;7.57;;
46266;SDS011;31998;48.798;15.066;2022-07-23T07:41:57;8.10;;;7.50;;
46266;SDS011;31998;48.798;15.066;2022-07-23T07:44:24;9.37;;;8.57;;
46266;SDS011;31998;48.798;15.066;2022-07-23T07:46:50;8.93;;;8.13;;
46266;SDS011;31998;48.798;15.066;2022-07-23T07:49:15;9.37;;;8.40;;
46266;SDS011;31998;48.798;15.066;2022-07-23T07:51:44;7.80;;;7.20;;
46266;SDS011;31998;48.798;15.066;2022-07-23T07:54:09;8.00;;;7.40;;
46266;SDS011;31998;48.798;15.066;2022-07-23T07:56:35;8.57;;;7.97;;
46266;SDS011;31998;48.798;15.066;2022-07-23T07:59:00;7.60;;;7.10;;
46266;SDS011;31998;48.798;15.066;2022-07-23T08:01:26;7.93;;;7.20;;
46266;SDS011;31998;48.798;15.066;2022-07-23T08:03:51;9.50;;;8.70;;
46266;SDS011;31998;48.798;15.066;2022-07-23T08:06:17;8.60;;;8.00;;
46266;SDS011;31998;48.798;15.066;2022-07-23T08:08:42;8.43;;;7.90;;
46266;SDS011;31998;48.798;15.066;2022-07-23T08:11:08;8.77;;;8.27;;
46266;SDS011;31998;48.798;15.066;2022-07-23T08:13:33;9.00;;;8.30;;
46266;SDS011;31998;48.798;15.066;2022-07-23T08:15:58;8.33;;;7.87;;
46266;SDS011;31998;48.798;15.066;2022-07-23T08:18:24;14.03;;;8.03;;
46266;SDS011;31998;48.798;15.066;2022-07-23T08:20:49;12.00;;;7.93;;
46266;SDS011;31998;48.798;15.066;2022-07-23T08:23:15;9.00;;;8.10;;
46266;SDS011;31998;48.798;15.066;2022-07-23T08:25:43;8.70;;;8.07;;
46266;SDS011;31998;48.798;15.066;2022-07-23T08:28:09;28.40;;;8.10;;
46266;SDS011;31998;48.798;15.066;2022-07-23T08:30:37;8.33;;;7.83;;
46266;SDS011;31998;48.798;15.066;2022-07-23T08:33:05;15.03;;;9.00;;
46266;SDS011;31998;48.798;15.066;2022-07-23T08:35:36;8.90;;;8.30;;
46266;SDS011;31998;48.798;15.066;2022-07-23T08:38:04;9.40;;;8.60;;
46266;SDS011;31998;48.798;15.066;2022-07-23T08:40:32;8.87;;;8.17;;
46266;SDS011;31998;48.798;15.066;2022-07-23T08:42:59;8.87;;;8.20;;
46266;SDS011;31998;48.798;15.066;2022-07-23T08:45:26;9.00;;;8.13;;
46266;SDS011;31998;48.798;15.066;2022-07-23T08:47:55;8.83;;;8.13;;
46266;SDS011;31998;48.798;15.066;2022-07-23T08:50:23;8.90;;;7.80;;
46266;SDS011;31998;48.798;15.066;2022-07-23T08:52:49;8.80;;;8.07;;
46266;SDS011;31998;48.798;15.066;2022-07-23T08:55:17;9.17;;;8.40;;
46266;SDS011;31998;48.798;15.066;2022-07-23T08:57:43;8.60;;;7.90;;
46266;SDS011;31998;48.798;15.066;2022-07-23T09:00:12;9.73;;;8.83;;
46266;SDS011;31998;48.798;15.066;2022-07-23T09:02:42;8.80;;;8.00;;
46266;SDS011;31998;48.798;15.066;2022-07-23T09:05:09;12.50;;;10.40;;
46266;SDS011;31998;48.798;15.066;2022-07-23T09:07:36;10.23;;;9.30;;
46266;SDS011;31998;48.798;15.066;2022-07-23T09:10:09;11.03;;;10.23;;
46266;SDS011;31998;48.798;15.066;2022-07-23T09:12:36;9.57;;;8.70;;
46266;SDS011;31998;48.798;15.066;2022-07-23T09:15:10;9.50;;;8.60;;
46266;SDS011;31998;48.798;15.066;2022-07-23T09:17:39;9.20;;;8.60;;
46266;SDS011;31998;48.798;15.066;2022-07-23T09:20:10;11.70;;;8.40;;
46266;SDS011;31998;48.798;15.066;2022-07-23T09:22:40;9.13;;;8.43;;
46266;SDS011;31998;48.798;15.066;2022-07-23T09:25:18;9.30;;;8.47;;
46266;SDS011;31998;48.798;15.066;2022-07-23T09:30:26;10.10;;;9.20;;
46266;SDS011;31998;48.798;15.066;2022-07-23T09:33:05;9.40;;;8.80;;
46266;SDS011;31998;48.798;15.066;2022-07-23T09:35:54;11.90;;;8.43;;
46266;SDS011;31998;48.798;15.066;2022-07-23T09:38:24;9.40;;;8.63;;
46266;SDS011;31998;48.798;15.066;2022-07-23T09:41:08;9.97;;;8.93;;
46266;SDS011;31998;48.798;15.066;2022-07-23T09:43:34;9.33;;;7.83;;
46266;SDS011;31998;48.798;15.066;2022-07-23T09:48:52;10.40;;;7.87;;
46266;SDS011;31998;48.798;15.066;2022-07-23T09:51:19;7.90;;;7.40;;
46266;SDS011;31998;48.798;15.066;2022-07-23T09:54:05;7.80;;;7.30;;
46266;SDS011;31998;48.798;15.066;2022-07-23T09:56:30;8.20;;;7.70;;
46266;SDS011;31998;48.798;15.066;2022-07-23T09:58:58;8.40;;;7.60;;
46266;SDS011;31998;48.798;15.066;2022-07-23T10:01:32;8.53;;;7.77;;
46266;SDS011;31998;48.798;15.066;2022-07-23T10:03:58;7.70;;;7.10;;
46266;SDS011;31998;48.798;15.066;2022-07-23T10:06:24;8.73;;;7.83;;
46266;SDS011;31998;48.798;15.066;2022-07-23T10:08:51;7.10;;;6.50;;
46266;SDS011;31998;48.798;15.066;2022-07-23T10:11:22;8.00;;;7.40;;
46266;SDS011;31998;48.798;15.066;2022-07-23T10:13:48;7.60;;;7.13;;
46266;SDS011;31998;48.798;15.066;2022-07-23T10:16:19;7.87;;;7.27;;
46266;SDS011;31998;48.798;15.066;2022-07-23T10:18:46;7.80;;;7.10;;
46266;SDS011;31998;48.798;15.066;2022-07-23T10:21:12;7.63;;;7.03;;
46266;SDS011;31998;48.798;15.066;2022-07-23T10:24:10;8.00;;;7.20;;
46266;SDS011;31998;48.798;15.066;2022-07-23T10:27:14;7.40;;;6.90;;
46266;SDS011;31998;48.798;15.066;2022-07-23T10:30:00;7.60;;;6.90;;
46266;SDS011;31998;48.798;15.066;2022-07-23T10:34:58;10.93;;;6.53;;
46266;SDS011;31998;48.798;15.066;2022-07-23T10:37:44;6.30;;;5.80;;
46266;SDS011;31998;48.798;15.066;2022-07-23T10:40:15;5.33;;;5.13;;
46266;SDS011;31998;48.798;15.066;2022-07-23T10:42:42;5.70;;;5.43;;
46266;SDS011;31998;48.798;15.066;2022-07-23T10:45:42;7.63;;;7.13;;
46266;SDS011;31998;48.798;15.066;2022-07-23T10:48:11;6.40;;;6.00;;
46266;SDS011;31998;48.798;15.066;2022-07-23T10:50:37;5.20;;;4.90;;
46266;SDS011;31998;48.798;15.066;2022-07-23T10:57:57;5.60;;;4.10;;
46266;SDS011;31998;48.798;15.066;2022-07-23T11:00:23;4.57;;;4.17;;
46266;SDS011;31998;48.798;15.066;2022-07-23T11:02:51;3.37;;;3.17;;
46266;SDS011;31998;48.798;15.066;2022-07-23T11:05:44;4.63;;;4.33;;
46266;SDS011;31998;48.798;15.066;2022-07-23T11:08:12;3.70;;;3.60;;
46266;SDS011;31998;48.798;15.066;2022-07-23T11:10:44;3.63;;;3.50;;
46266;SDS011;31998;48.798;15.066;2022-07-23T11:16:14;4.90;;;4.47;;
46266;SDS011;31998;48.798;15.066;2022-07-23T11:34:30;4.10;;;3.90;;
46266;SDS011;31998;48.798;15.066;2022-07-23T11:37:00;4.20;;;3.90;;
46266;SDS011;31998;48.798;15.066;2022-07-23T11:39:26;4.47;;;4.07;;
46266;SDS011;31998;48.798;15.066;2022-07-23T11:41:54;5.33;;;4.80;;
46266;SDS011;31998;48.798;15.066;2022-07-23T11:44:33;4.30;;;4.10;;
46266;SDS011;31998;48.798;15.066;2022-07-23T11:47:02;4.33;;;3.97;;
46266;SDS011;31998;48.798;15.066;2022-07-23T11:49:29;9.90;;;3.93;;
46266;SDS011;31998;48.798;15.066;2022-07-23T11:52:14;5.70;;;3.60;;
46266;SDS011;31998;48.798;15.066;2022-07-23T11:54:47;4.53;;;4.30;;
46266;SDS011;31998;48.798;15.066;2022-07-23T11:57:15;5.03;;;4.67;;
46266;SDS011;31998;48.798;15.066;2022-07-23T11:59:42;4.60;;;4.40;;
46266;SDS011;31998;48.798;15.066;2022-07-23T12:02:08;4.97;;;4.70;;
46266;SDS011;31998;48.798;15.066;2022-07-23T12:04:40;3.80;;;3.60;;
46266;SDS011;31998;48.798;15.066;2022-07-23T12:09:52;5.17;;;4.67;;
46266;SDS011;31998;48.798;15.066;2022-07-23T12:12:18;4.03;;;3.83;;
46266;SDS011;31998;48.798;15.066;2022-07-23T12:14:47;6.00;;;3.90;;
46266;SDS011;31998;48.798;15.066;2022-07-23T12:17:30;4.83;;;3.20;;
46266;SDS011;31998;48.798;15.066;2022-07-23T12:19:57;3.70;;;3.40;;
46266;SDS011;31998;48.798;15.066;2022-07-23T12:22:25;4.73;;;3.77;;
46266;SDS011;31998;48.798;15.066;2022-07-23T12:24:58;4.07;;;3.83;;
46266;SDS011;31998;48.798;15.066;2022-07-23T12:27:25;3.90;;;3.40;;
46266;SDS011;31998;48.798;15.066;2022-07-23T12:29:52;4.20;;;3.90;;
46266;SDS011;31998;48.798;15.066;2022-07-23T12:34:48;5.03;;;3.80;;
46266;SDS011;31998;48.798;15.066;2022-07-23T12:37:25;8.87;;;4.60;;
46266;SDS011;31998;48.798;15.066;2022-07-23T12:39:55;3.60;;;3.23;;
46266;SDS011;31998;48.798;15.066;2022-07-23T12:42:21;3.70;;;3.50;;
46266;SDS011;31998;48.798;15.066;2022-07-23T12:45:06;4.80;;;3.87;;
46266;SDS011;31998;48.798;15.066;2022-07-23T12:50:40;3.07;;;2.87;;
46266;SDS011;31998;48.798;15.066;2022-07-23T12:55:49;3.70;;;3.50;;
46266;SDS011;31998;48.798;15.066;2022-07-23T12:58:16;5.23;;;3.67;;
46266;SDS011;31998;48.798;15.066;2022-07-23T13:03:55;3.50;;;3.20;;
46266;SDS011;31998;48.798;15.066;2022-07-23T13:06:19;3.97;;;3.77;;
46266;SDS011;31998;48.798;15.066;2022-07-23T13:08:44;4.10;;;3.10;;
46266;SDS011;31998;48.798;15.066;2022-07-23T13:11:10;3.50;;;3.30;;
46266;SDS011;31998;48.798;15.066;2022-07-23T13:13:35;4.40;;;4.00;;
46266;SDS011;31998;48.798;15.066;2022-07-23T13:16:01;5.20;;;4.00;;
46266;SDS011;31998;48.798;15.066;2022-07-23T13:18:27;5.60;;;3.00;;
46266;SDS011;31998;48.798;15.066;2022-07-23T13:20:53;3.63;;;3.40;;
46266;SDS011;31998;48.798;15.066;2022-07-23T13:23:19;3.63;;;3.30;;
46266;SDS011;31998;48.798;15.066;2022-07-23T13:25:45;4.83;;;3.53;;
46266;SDS011;31998;48.798;15.066;2022-07-23T13:28:11;3.47;;;3.27;;
46266;SDS011;31998;48.798;15.066;2022-07-23T13:30:38;4.23;;;3.93;;
46266;SDS011;31998;48.798;15.066;2022-07-23T13:33:04;3.83;;;3.63;;
46266;SDS011;31998;48.798;15.066;2022-07-23T13:35:30;3.73;;;3.63;;
46266;SDS011;31998;48.798;15.066;2022-07-23T13:37:55;4.40;;;4.03;;
46266;SDS011;31998;48.798;15.066;2022-07-23T13:40:21;3.50;;;3.20;;
46266;SDS011;31998;48.798;15.066;2022-07-23T13:42:47;6.30;;;3.83;;
46266;SDS011;31998;48.798;15.066;2022-07-23T13:45:12;4.40;;;4.10;;
46266;SDS011;31998;48.798;15.066;2022-07-23T13:47:38;11.13;;;4.00;;
46266;SDS011;31998;48.798;15.066;2022-07-23T13:50:03;5.07;;;4.67;;
46266;SDS011;31998;48.798;15.066;2022-07-23T13:52:29;5.70;;;4.40;;
46266;SDS011;31998;48.798;15.066;2022-07-23T13:54:55;4.70;;;4.33;;
46266;SDS011;31998;48.798;15.066;2022-07-23T13:57:20;3.70;;;3.60;;
46266;SDS011;31998;48.798;15.066;2022-07-23T13:59:46;4.03;;;3.10;;
46266;SDS011;31998;48.798;15.066;2022-07-23T14:02:11;4.13;;;3.83;;
46266;SDS011;31998;48.798;15.066;2022-07-23T14:04:41;3.97;;;3.87;;
46266;SDS011;31998;48.798;15.066;2022-07-23T14:07:07;4.30;;;4.10;;
46266;SDS011;31998;48.798;15.066;2022-07-23T14:09:32;4.53;;;4.33;;
46266;SDS011;31998;48.798;15.066;2022-07-23T14:11:58;3.60;;;3.30;;
46266;SDS011;31998;48.798;15.066;2022-07-23T14:14:24;4.87;;;4.30;;
46266;SDS011;31998;48.798;15.066;2022-07-23T14:16:50;4.50;;;4.30;;
46266;SDS011;31998;48.798;15.066;2022-07-23T14:19:15;4.50;;;4.17;;
46266;SDS011;31998;48.798;15.066;2022-07-23T14:21:41;4.90;;;3.73;;
46266;SDS011;31998;48.798;15.066;2022-07-23T14:24:06;4.77;;;4.13;;
46266;SDS011;31998;48.798;15.066;2022-07-23T14:26:32;4.60;;;4.20;;
46266;SDS011;31998;48.798;15.066;2022-07-23T14:28:57;11.47;;;4.93;;
46266;SDS011;31998;48.798;15.066;2022-07-23T14:31:23;4.33;;;4.03;;
46266;SDS011;31998;48.798;15.066;2022-07-23T14:33:48;4.83;;;4.57;;
46266;SDS011;31998;48.798;15.066;2022-07-23T14:36:14;3.80;;;3.60;;
46266;SDS011;31998;48.798;15.066;2022-07-23T14:38:39;3.73;;;3.63;;
46266;SDS011;31998;48.798;15.066;2022-07-23T14:41:05;4.03;;;3.80;;
46266;SDS011;31998;48.798;15.066;2022-07-23T14:43:32;10.13;;;4.40;;
46266;SDS011;31998;48.798;15.066;2022-07-23T14:45:58;3.87;;;3.77;;
46266;SDS011;31998;48.798;15.066;2022-07-23T14:48:23;3.60;;;3.50;;
46266;SDS011;31998;48.798;15.066;2022-07-23T14:50:49;4.80;;;4.40;;
46266;SDS011;31998;48.798;15.066;2022-07-23T14:53:14;4.20;;;3.90;;
46266;SDS011;31998;48.798;15.066;2022-07-23T14:55:39;4.33;;;3.93;;
46266;SDS011;31998;48.798;15.066;2022-07-23T14:58:05;6.57;;;3.33;;
46266;SDS011;31998;48.798;15.066;2022-07-23T15:00:30;3.57;;;3.47;;
46266;SDS011;31998;48.798;15.066;2022-07-23T15:02:56;3.80;;;3.60;;
46266;SDS011;31998;48.798;15.066;2022-07-23T15:05:21;3.77;;;3.57;;
46266;SDS011;31998;48.798;15.066;2022-07-23T15:07:47;6.07;;;3.40;;
46266;SDS011;31998;48.798;15.066;2022-07-23T15:10:15;3.30;;;3.20;;